sensor_id;sensor_type;location;lat;lon;timestamp;P1;durP1;ratioP1;P2;durP2;ratioP2
9665;SDS011;4871;52.004;5.924;2023-06-26T00:00:00;8.10;;;7.50;;
9665;SDS011;4871;52.004;5.924;2023-06-26T00:01:01;8.10;;;7.50;;
9665;SDS011;4871;52.004;5.924;2023-06-26T00:02:00;8.10;;;7.50;;
9665;SDS011;4871;52.004;5.924;2023-06-26T00:03:00;8.10;;;7.50;;
9665;SDS011;4871;52.004;5.924;2023-06-26T00:04:00;8.10;;;7.50;;
9665;SDS011;4871;52.004;5.924;2023-06-26T00:05:02;8.10;;;7.50;;
9665;SDS011;4871;52.004;5.924;2023-06-26T00:06:00;8.10;;;7.50;;
9665;SDS011;4871;52.004;5.924;2023-06-26T00:07:00;8.10;;;7.50;;
9665;SDS011;4871;52.004;5.924;2023-06-26T00:08:00;7.70;;;7.10;;
9665;SDS011;4871;52.004;5.924;2023-06-26T00:09:00;7.70;;;7.10;;
9665;SDS011;4871;52.004;5.924;2023-06-26T00:10:00;7.70;;;7.10;;
9665;SDS011;4871;52.004;5.924;2023-06-26T00:11:00;7.70;;;7.10;;
9665;SDS011;4871;52.004;5.924;2023-06-26T00:12:00;7.70;;;7.10;;
9665;SDS011;4871;52.004;5.924;2023-06-26T00:13:01;7.70;;;7.10;;
9665;SDS011;4871;52.004;5.924;2023-06-26T00:14:00;7.70;;;7.10;;
9665;SDS011;4871;52.004;5.924;2023-06-26T00:15:00;7.70;;;7.10;;
9665;SDS011;4871;52.004;5.924;2023-06-26T00:16:03;7.70;;;7.10;;
9665;SDS011;4871;52.004;5.924;2023-06-26T00:17:00;7.70;;;7.10;;
9665;SDS011;4871;52.004;5.924;2023-06-26T00:18:00;7.70;;;7.10;;
9665;SDS011;4871;52.004;5.924;2023-06-26T00:19:00;7.70;;;7.10;;
9665;SDS011;4871;52.004;5.924;2023-06-26T00:20:05;7.70;;;7.10;;
9665;SDS011;4871;52.004;5.924;2023-06-26T00:21:00;7.70;;;7.10;;
9665;SDS011;4871;52.004;5.924;2023-06-26T00:22:00;7.70;;;7.10;;
9665;SDS011;4871;52.004;5.924;2023-06-26T00:23:00;7.70;;;7.10;;
9665;SDS011;4871;52.004;5.924;2023-06-26T00:24:00;7.70;;;7.10;;
9665;SDS011;4871;52.004;5.924;2023-06-26T00:25:00;7.70;;;7.10;;
9665;SDS011;4871;52.004;5.924;2023-06-26T00:26:01;7.70;;;7.10;;
9665;SDS011;4871;52.004;5.924;2023-06-26T00:27:00;7.70;;;7.10;;
9665;SDS011;4871;52.004;5.924;2023-06-26T00:28:01;7.70;;;7.10;;
9665;SDS011;4871;52.004;5.924;2023-06-26T00:29:00;7.70;;;7.10;;
9665;SDS011;4871;52.004;5.924;2023-06-26T00:30:00;7.70;;;7.10;;
9665;SDS011;4871;52.004;5.924;2023-06-26T00:31:00;7.70;;;7.10;;
9665;SDS011;4871;52.004;5.924;2023-06-26T00:32:00;7.70;;;7.10;;
9665;SDS011;4871;52.004;5.924;2023-06-26T00:33:00;7.70;;;7.10;;
9665;SDS011;4871;52.004;5.924;2023-06-26T00:34:00;7.70;;;7.10;;
9665;SDS011;4871;52.004;5.924;2023-06-26T00:35:00;7.70;;;7.10;;
9665;SDS011;4871;52.004;5.924;2023-06-26T00:36:00;7.70;;;7.10;;
9665;SDS011;4871;52.004;5.924;2023-06-26T00:37:00;7.70;;;7.10;;
9665;SDS011;4871;52.004;5.924;2023-06-26T00:38:00;8.60;;;7.90;;
9665;SDS011;4871;52.004;5.924;2023-06-26T00:39:00;8.60;;;7.90;;
9665;SDS011;4871;52.004;5.924;2023-06-26T00:40:00;8.60;;;7.90;;
9665;SDS011;4871;52.004;5.924;2023-06-26T00:41:00;8.60;;;7.90;;
9665;SDS011;4871;52.004;5.924;2023-06-26T00:42:00;8.60;;;7.90;;
9665;SDS011;4871;52.004;5.924;2023-06-26T00:43:00;8.60;;;7.90;;
9665;SDS011;4871;52.004;5.924;2023-06-26T00:44:00;8.60;;;7.90;;
9665;SDS011;4871;52.004;5.924;2023-06-26T00:45:00;8.60;;;7.90;;
9665;SDS011;4871;52.004;5.924;2023-06-26T00:46:00;8.60;;;7.90;;
9665;SDS011;4871;52.004;5.924;2023-06-26T00:47:00;8.60;;;7.90;;
9665;SDS011;4871;52.004;5.924;2023-06-26T00:48:00;8.60;;;7.90;;
9665;SDS011;4871;52.004;5.924;2023-06-26T00:49:01;8.60;;;7.90;;
9665;SDS011;4871;52.004;5.924;2023-06-26T00:50:00;8.60;;;7.90;;
9665;SDS011;4871;52.004;5.924;2023-06-26T00:51:00;8.60;;;7.90;;
9665;SDS011;4871;52.004;5.924;2023-06-26T00:52:00;8.60;;;7.90;;
9665;SDS011;4871;52.004;5.924;2023-06-26T00:53:01;8.60;;;7.90;;
9665;SDS011;4871;52.004;5.924;2023-06-26T00:54:00;8.60;;;7.90;;
9665;SDS011;4871;52.004;5.924;2023-06-26T00:55:00;8.60;;;7.90;;
9665;SDS011;4871;52.004;5.924;2023-06-26T00:56:00;8.60;;;7.90;;
9665;SDS011;4871;52.004;5.924;2023-06-26T00:57:00;8.60;;;7.90;;
9665;SDS011;4871;52.004;5.924;2023-06-26T00:58:00;8.60;;;7.90;;
9665;SDS011;4871;52.004;5.924;2023-06-26T00:59:00;8.60;;;7.90;;
9665;SDS011;4871;52.004;5.924;2023-06-26T01:00:00;8.60;;;7.90;;
9665;SDS011;4871;52.004;5.924;2023-06-26T01:01:01;8.60;;;7.90;;
9665;SDS011;4871;52.004;5.924;2023-06-26T01:02:00;8.60;;;7.90;;
9665;SDS011;4871;52.004;5.924;2023-06-26T01:03:00;8.60;;;7.90;;
9665;SDS011;4871;52.004;5.924;2023-06-26T01:04:00;8.60;;;7.90;;
9665;SDS011;4871;52.004;5.924;2023-06-26T01:05:01;8.60;;;7.90;;
9665;SDS011;4871;52.004;5.924;2023-06-26T01:06:00;8.60;;;7.90;;
9665;SDS011;4871;52.004;5.924;2023-06-26T01:07:00;8.60;;;7.90;;
9665;SDS011;4871;52.004;5.924;2023-06-26T01:08:00;9.50;;;8.70;;
9665;SDS011;4871;52.004;5.924;2023-06-26T01:09:00;9.50;;;8.70;;
9665;SDS011;4871;52.004;5.924;2023-06-26T01:10:00;9.50;;;8.70;;
9665;SDS011;4871;52.004;5.924;2023-06-26T01:11:00;9.50;;;8.70;;
9665;SDS011;4871;52.004;5.924;2023-06-26T01:12:00;9.50;;;8.70;;
9665;SDS011;4871;52.004;5.924;2023-06-26T01:13:00;9.50;;;8.70;;
9665;SDS011;4871;52.004;5.924;2023-06-26T01:14:00;9.50;;;8.70;;
9665;SDS011;4871;52.004;5.924;2023-06-26T01:15:00;9.50;;;8.70;;
9665;SDS011;4871;52.004;5.924;2023-06-26T01:16:00;9.50;;;8.70;;
9665;SDS011;4871;52.004;5.924;2023-06-26T01:17:00;9.50;;;8.70;;
9665;SDS011;4871;52.004;5.924;2023-06-26T01:18:03;9.50;;;8.70;;
9665;SDS011;4871;52.004;5.924;2023-06-26T01:19:00;9.50;;;8.70;;
9665;SDS011;4871;52.004;5.924;2023-06-26T01:20:00;9.50;;;8.70;;
9665;SDS011;4871;52.004;5.924;2023-06-26T01:21:01;9.50;;;8.70;;
9665;SDS011;4871;52.004;5.924;2023-06-26T01:22:02;9.50;;;8.70;;
9665;SDS011;4871;52.004;5.924;2023-06-26T01:23:03;9.50;;;8.70;;
9665;SDS011;4871;52.004;5.924;2023-06-26T01:24:05;9.50;;;8.70;;
9665;SDS011;4871;52.004;5.924;2023-06-26T01:25:03;9.50;;;8.70;;
9665;SDS011;4871;52.004;5.924;2023-06-26T01:26:09;9.50;;;8.70;;
9665;SDS011;4871;52.004;5.924;2023-06-26T01:27:00;9.50;;;8.70;;
9665;SDS011;4871;52.004;5.924;2023-06-26T01:28:00;9.50;;;8.70;;
9665;SDS011;4871;52.004;5.924;2023-06-26T01:29:01;9.50;;;8.70;;
9665;SDS011;4871;52.004;5.924;2023-06-26T01:30:01;9.50;;;8.70;;
9665;SDS011;4871;52.004;5.924;2023-06-26T01:31:00;9.50;;;8.70;;
9665;SDS011;4871;52.004;5.924;2023-06-26T01:32:00;9.50;;;8.70;;
9665;SDS011;4871;52.004;5.924;2023-06-26T01:33:00;9.50;;;8.70;;
9665;SDS011;4871;52.004;5.924;2023-06-26T01:34:00;9.50;;;8.70;;
9665;SDS011;4871;52.004;5.924;2023-06-26T01:35:00;9.50;;;8.70;;
9665;SDS011;4871;52.004;5.924;2023-06-26T01:36:00;9.50;;;8.70;;
9665;SDS011;4871;52.004;5.924;2023-06-26T01:37:00;9.50;;;8.70;;
9665;SDS011;4871;52.004;5.924;2023-06-26T01:38:16;10.40;;;9.40;;
9665;SDS011;4871;52.004;5.924;2023-06-26T01:39:00;10.40;;;9.40;;
9665;SDS011;4871;52.004;5.924;2023-06-26T01:40:00;10.40;;;9.40;;
9665;SDS011;4871;52.004;5.924;2023-06-26T01:41:00;10.40;;;9.40;;
9665;SDS011;4871;52.004;5.924;2023-06-26T01:42:00;10.40;;;9.40;;
9665;SDS011;4871;52.004;5.924;2023-06-26T01:43:00;10.40;;;9.40;;
9665;SDS011;4871;52.004;5.924;2023-06-26T01:44:03;10.40;;;9.40;;
9665;SDS011;4871;52.004;5.924;2023-06-26T01:45:01;10.40;;;9.40;;
9665;SDS011;4871;52.004;5.924;2023-06-26T01:46:01;10.40;;;9.40;;
9665;SDS011;4871;52.004;5.924;2023-06-26T01:47:02;10.40;;;9.40;;
9665;SDS011;4871;52.004;5.924;2023-06-26T01:48:00;10.40;;;9.40;;
9665;SDS011;4871;52.004;5.924;2023-06-26T01:49:01;10.40;;;9.40;;
9665;SDS011;4871;52.004;5.924;2023-06-26T01:50:02;10.40;;;9.40;;
9665;SDS011;4871;52.004;5.924;2023-06-26T01:51:00;10.40;;;9.40;;
9665;SDS011;4871;52.004;5.924;2023-06-26T01:52:02;10.40;;;9.40;;
9665;SDS011;4871;52.004;5.924;2023-06-26T01:53:01;10.40;;;9.40;;
9665;SDS011;4871;52.004;5.924;2023-06-26T01:54:00;10.40;;;9.40;;
9665;SDS011;4871;52.004;5.924;2023-06-26T01:55:05;10.40;;;9.40;;
9665;SDS011;4871;52.004;5.924;2023-06-26T01:56:03;10.40;;;9.40;;
9665;SDS011;4871;52.004;5.924;2023-06-26T01:57:00;10.40;;;9.40;;
9665;SDS011;4871;52.004;5.924;2023-06-26T01:58:00;10.40;;;9.40;;
9665;SDS011;4871;52.004;5.924;2023-06-26T01:59:00;10.40;;;9.40;;
9665;SDS011;4871;52.004;5.924;2023-06-26T02:00:00;10.40;;;9.40;;
9665;SDS011;4871;52.004;5.924;2023-06-26T02:01:00;10.40;;;9.40;;
9665;SDS011;4871;52.004;5.924;2023-06-26T02:02:00;10.40;;;9.40;;
9665;SDS011;4871;52.004;5.924;2023-06-26T02:03:00;10.40;;;9.40;;
9665;SDS011;4871;52.004;5.924;2023-06-26T02:04:00;10.40;;;9.40;;
9665;SDS011;4871;52.004;5.924;2023-06-26T02:05:00;10.40;;;9.40;;
9665;SDS011;4871;52.004;5.924;2023-06-26T02:06:00;10.40;;;9.40;;
9665;SDS011;4871;52.004;5.924;2023-06-26T02:07:00;10.40;;;9.40;;
9665;SDS011;4871;52.004;5.924;2023-06-26T02:08:03;11.50;;;10.40;;
9665;SDS011;4871;52.004;5.924;2023-06-26T02:09:00;11.50;;;10.40;;
9665;SDS011;4871;52.004;5.924;2023-06-26T02:10:00;11.50;;;10.40;;
9665;SDS011;4871;52.004;5.924;2023-06-26T02:11:00;11.50;;;10.40;;
9665;SDS011;4871;52.004;5.924;2023-06-26T02:12:00;11.50;;;10.40;;
9665;SDS011;4871;52.004;5.924;2023-06-26T02:13:00;11.50;;;10.40;;
9665;SDS011;4871;52.004;5.924;2023-06-26T02:14:00;11.50;;;10.40;;
9665;SDS011;4871;52.004;5.924;2023-06-26T02:15:00;11.50;;;10.40;;
9665;SDS011;4871;52.004;5.924;2023-06-26T02:16:00;11.50;;;10.40;;
9665;SDS011;4871;52.004;5.924;2023-06-26T02:17:00;11.50;;;10.40;;
9665;SDS011;4871;52.004;5.924;2023-06-26T02:18:00;11.50;;;10.40;;
9665;SDS011;4871;52.004;5.924;2023-06-26T02:19:00;11.50;;;10.40;;
9665;SDS011;4871;52.004;5.924;2023-06-26T02:20:00;11.50;;;10.40;;
9665;SDS011;4871;52.004;5.924;2023-06-26T02:21:02;11.50;;;10.40;;
9665;SDS011;4871;52.004;5.924;2023-06-26T02:22:00;11.50;;;10.40;;
9665;SDS011;4871;52.004;5.924;2023-06-26T02:23:00;11.50;;;10.40;;
9665;SDS011;4871;52.004;5.924;2023-06-26T02:24:00;11.50;;;10.40;;
9665;SDS011;4871;52.004;5.924;2023-06-26T02:25:00;11.50;;;10.40;;
9665;SDS011;4871;52.004;5.924;2023-06-26T02:26:00;11.50;;;10.40;;
9665;SDS011;4871;52.004;5.924;2023-06-26T02:27:00;11.50;;;10.40;;
9665;SDS011;4871;52.004;5.924;2023-06-26T02:28:00;11.50;;;10.40;;
9665;SDS011;4871;52.004;5.924;2023-06-26T02:29:00;11.50;;;10.40;;
9665;SDS011;4871;52.004;5.924;2023-06-26T02:30:00;11.50;;;10.40;;
9665;SDS011;4871;52.004;5.924;2023-06-26T02:31:00;11.50;;;10.40;;
9665;SDS011;4871;52.004;5.924;2023-06-26T02:32:00;11.50;;;10.40;;
9665;SDS011;4871;52.004;5.924;2023-06-26T02:33:00;11.50;;;10.40;;
9665;SDS011;4871;52.004;5.924;2023-06-26T02:34:00;11.50;;;10.40;;
9665;SDS011;4871;52.004;5.924;2023-06-26T02:35:00;11.50;;;10.40;;
9665;SDS011;4871;52.004;5.924;2023-06-26T02:36:01;11.50;;;10.40;;
9665;SDS011;4871;52.004;5.924;2023-06-26T02:37:00;11.50;;;10.40;;
9665;SDS011;4871;52.004;5.924;2023-06-26T02:38:00;7.90;;;7.10;;
9665;SDS011;4871;52.004;5.924;2023-06-26T02:39:00;7.90;;;7.10;;
9665;SDS011;4871;52.004;5.924;2023-06-26T02:40:00;7.90;;;7.10;;
9665;SDS011;4871;52.004;5.924;2023-06-26T02:41:00;7.90;;;7.10;;
9665;SDS011;4871;52.004;5.924;2023-06-26T02:42:00;7.90;;;7.10;;
9665;SDS011;4871;52.004;5.924;2023-06-26T02:43:00;7.90;;;7.10;;
9665;SDS011;4871;52.004;5.924;2023-06-26T02:44:00;7.90;;;7.10;;
9665;SDS011;4871;52.004;5.924;2023-06-26T02:45:00;7.90;;;7.10;;
9665;SDS011;4871;52.004;5.924;2023-06-26T02:46:00;7.90;;;7.10;;
9665;SDS011;4871;52.004;5.924;2023-06-26T02:47:00;7.90;;;7.10;;
9665;SDS011;4871;52.004;5.924;2023-06-26T02:48:00;7.90;;;7.10;;
9665;SDS011;4871;52.004;5.924;2023-06-26T02:49:00;7.90;;;7.10;;
9665;SDS011;4871;52.004;5.924;2023-06-26T02:50:00;7.90;;;7.10;;
9665;SDS011;4871;52.004;5.924;2023-06-26T02:51:00;7.90;;;7.10;;
9665;SDS011;4871;52.004;5.924;2023-06-26T02:52:00;7.90;;;7.10;;
9665;SDS011;4871;52.004;5.924;2023-06-26T02:53:00;7.90;;;7.10;;
9665;SDS011;4871;52.004;5.924;2023-06-26T02:54:00;7.90;;;7.10;;
9665;SDS011;4871;52.004;5.924;2023-06-26T02:55:00;7.90;;;7.10;;
9665;SDS011;4871;52.004;5.924;2023-06-26T02:56:00;7.90;;;7.10;;
9665;SDS011;4871;52.004;5.924;2023-06-26T02:57:00;7.90;;;7.10;;
9665;SDS011;4871;52.004;5.924;2023-06-26T02:58:00;7.90;;;7.10;;
9665;SDS011;4871;52.004;5.924;2023-06-26T02:59:00;7.90;;;7.10;;
9665;SDS011;4871;52.004;5.924;2023-06-26T03:00:00;7.90;;;7.10;;
9665;SDS011;4871;52.004;5.924;2023-06-26T03:01:00;7.90;;;7.10;;
9665;SDS011;4871;52.004;5.924;2023-06-26T03:02:00;7.90;;;7.10;;
9665;SDS011;4871;52.004;5.924;2023-06-26T03:03:00;7.90;;;7.10;;
9665;SDS011;4871;52.004;5.924;2023-06-26T03:04:00;7.90;;;7.10;;
9665;SDS011;4871;52.004;5.924;2023-06-26T03:05:00;7.90;;;7.10;;
9665;SDS011;4871;52.004;5.924;2023-06-26T03:06:00;7.90;;;7.10;;
9665;SDS011;4871;52.004;5.924;2023-06-26T03:07:01;7.90;;;7.10;;
9665;SDS011;4871;52.004;5.924;2023-06-26T03:08:01;7.10;;;6.50;;
9665;SDS011;4871;52.004;5.924;2023-06-26T03:09:00;7.10;;;6.50;;
9665;SDS011;4871;52.004;5.924;2023-06-26T03:10:00;7.10;;;6.50;;
9665;SDS011;4871;52.004;5.924;2023-06-26T03:11:00;7.10;;;6.50;;
9665;SDS011;4871;52.004;5.924;2023-06-26T03:12:00;7.10;;;6.50;;
9665;SDS011;4871;52.004;5.924;2023-06-26T03:13:00;7.10;;;6.50;;
9665;SDS011;4871;52.004;5.924;2023-06-26T03:14:00;7.10;;;6.50;;
9665;SDS011;4871;52.004;5.924;2023-06-26T03:15:00;7.10;;;6.50;;
9665;SDS011;4871;52.004;5.924;2023-06-26T03:16:00;7.10;;;6.50;;
9665;SDS011;4871;52.004;5.924;2023-06-26T03:17:03;7.10;;;6.50;;
9665;SDS011;4871;52.004;5.924;2023-06-26T03:18:00;7.10;;;6.50;;
9665;SDS011;4871;52.004;5.924;2023-06-26T03:19:00;7.10;;;6.50;;
9665;SDS011;4871;52.004;5.924;2023-06-26T03:20:00;7.10;;;6.50;;
9665;SDS011;4871;52.004;5.924;2023-06-26T03:21:00;7.10;;;6.50;;
9665;SDS011;4871;52.004;5.924;2023-06-26T03:22:00;7.10;;;6.50;;
9665;SDS011;4871;52.004;5.924;2023-06-26T03:23:00;7.10;;;6.50;;
9665;SDS011;4871;52.004;5.924;2023-06-26T03:24:00;7.10;;;6.50;;
9665;SDS011;4871;52.004;5.924;2023-06-26T03:25:01;7.10;;;6.50;;
9665;SDS011;4871;52.004;5.924;2023-06-26T03:26:00;7.10;;;6.50;;
9665;SDS011;4871;52.004;5.924;2023-06-26T03:27:00;7.10;;;6.50;;
9665;SDS011;4871;52.004;5.924;2023-06-26T03:28:00;7.10;;;6.50;;
9665;SDS011;4871;52.004;5.924;2023-06-26T03:29:00;7.10;;;6.50;;
9665;SDS011;4871;52.004;5.924;2023-06-26T03:30:00;7.10;;;6.50;;
9665;SDS011;4871;52.004;5.924;2023-06-26T03:31:00;7.10;;;6.50;;
9665;SDS011;4871;52.004;5.924;2023-06-26T03:32:00;7.10;;;6.50;;
9665;SDS011;4871;52.004;5.924;2023-06-26T03:33:00;7.10;;;6.50;;
9665;SDS011;4871;52.004;5.924;2023-06-26T03:34:00;7.10;;;6.50;;
9665;SDS011;4871;52.004;5.924;2023-06-26T03:35:03;7.10;;;6.50;;
9665;SDS011;4871;52.004;5.924;2023-06-26T03:36:00;7.10;;;6.50;;
9665;SDS011;4871;52.004;5.924;2023-06-26T03:37:00;7.10;;;6.50;;
9665;SDS011;4871;52.004;5.924;2023-06-26T03:38:00;9.30;;;6.50;;
9665;SDS011;4871;52.004;5.924;2023-06-26T03:39:00;9.30;;;6.50;;
9665;SDS011;4871;52.004;5.924;2023-06-26T03:40:00;9.30;;;6.50;;
9665;SDS011;4871;52.004;5.924;2023-06-26T03:41:00;9.30;;;6.50;;
9665;SDS011;4871;52.004;5.924;2023-06-26T03:42:01;9.30;;;6.50;;
9665;SDS011;4871;52.004;5.924;2023-06-26T03:43:00;9.30;;;6.50;;
9665;SDS011;4871;52.004;5.924;2023-06-26T03:44:01;9.30;;;6.50;;
9665;SDS011;4871;52.004;5.924;2023-06-26T03:45:00;9.30;;;6.50;;
9665;SDS011;4871;52.004;5.924;2023-06-26T03:46:00;9.30;;;6.50;;
9665;SDS011;4871;52.004;5.924;2023-06-26T03:47:00;9.30;;;6.50;;
9665;SDS011;4871;52.004;5.924;2023-06-26T03:48:00;9.30;;;6.50;;
9665;SDS011;4871;52.004;5.924;2023-06-26T03:49:00;9.30;;;6.50;;
9665;SDS011;4871;52.004;5.924;2023-06-26T03:50:00;9.30;;;6.50;;
9665;SDS011;4871;52.004;5.924;2023-06-26T03:51:02;9.30;;;6.50;;
9665;SDS011;4871;52.004;5.924;2023-06-26T03:52:00;9.30;;;6.50;;
9665;SDS011;4871;52.004;5.924;2023-06-26T03:53:00;9.30;;;6.50;;
9665;SDS011;4871;52.004;5.924;2023-06-26T03:54:00;9.30;;;6.50;;
9665;SDS011;4871;52.004;5.924;2023-06-26T03:55:00;9.30;;;6.50;;
9665;SDS011;4871;52.004;5.924;2023-06-26T03:56:00;9.30;;;6.50;;
9665;SDS011;4871;52.004;5.924;2023-06-26T03:57:00;9.30;;;6.50;;
9665;SDS011;4871;52.004;5.924;2023-06-26T03:58:00;9.30;;;6.50;;
9665;SDS011;4871;52.004;5.924;2023-06-26T03:59:00;9.30;;;6.50;;
9665;SDS011;4871;52.004;5.924;2023-06-26T04:00:00;9.30;;;6.50;;
9665;SDS011;4871;52.004;5.924;2023-06-26T04:01:00;9.30;;;6.50;;
9665;SDS011;4871;52.004;5.924;2023-06-26T04:02:00;9.30;;;6.50;;
9665;SDS011;4871;52.004;5.924;2023-06-26T04:03:00;9.30;;;6.50;;
9665;SDS011;4871;52.004;5.924;2023-06-26T04:04:00;9.30;;;6.50;;
9665;SDS011;4871;52.004;5.924;2023-06-26T04:05:00;9.30;;;6.50;;
9665;SDS011;4871;52.004;5.924;2023-06-26T04:06:00;9.30;;;6.50;;
9665;SDS011;4871;52.004;5.924;2023-06-26T04:07:00;9.30;;;6.50;;
9665;SDS011;4871;52.004;5.924;2023-06-26T04:08:00;8.80;;;6.80;;
9665;SDS011;4871;52.004;5.924;2023-06-26T04:09:00;8.80;;;6.80;;
9665;SDS011;4871;52.004;5.924;2023-06-26T04:10:00;8.80;;;6.80;;
9665;SDS011;4871;52.004;5.924;2023-06-26T04:11:00;8.80;;;6.80;;
9665;SDS011;4871;52.004;5.924;2023-06-26T04:12:00;8.80;;;6.80;;
9665;SDS011;4871;52.004;5.924;2023-06-26T04:13:00;8.80;;;6.80;;
9665;SDS011;4871;52.004;5.924;2023-06-26T04:14:00;8.80;;;6.80;;
9665;SDS011;4871;52.004;5.924;2023-06-26T04:15:00;8.80;;;6.80;;
9665;SDS011;4871;52.004;5.924;2023-06-26T04:16:01;8.80;;;6.80;;
9665;SDS011;4871;52.004;5.924;2023-06-26T04:17:03;8.80;;;6.80;;
9665;SDS011;4871;52.004;5.924;2023-06-26T04:18:00;8.80;;;6.80;;
9665;SDS011;4871;52.004;5.924;2023-06-26T04:19:02;8.80;;;6.80;;
9665;SDS011;4871;52.004;5.924;2023-06-26T04:20:00;8.80;;;6.80;;
9665;SDS011;4871;52.004;5.924;2023-06-26T04:21:10;8.80;;;6.80;;
9665;SDS011;4871;52.004;5.924;2023-06-26T04:22:00;8.80;;;6.80;;
9665;SDS011;4871;52.004;5.924;2023-06-26T04:23:00;8.80;;;6.80;;
9665;SDS011;4871;52.004;5.924;2023-06-26T04:24:00;8.80;;;6.80;;
9665;SDS011;4871;52.004;5.924;2023-06-26T04:25:01;8.80;;;6.80;;
9665;SDS011;4871;52.004;5.924;2023-06-26T04:26:00;8.80;;;6.80;;
9665;SDS011;4871;52.004;5.924;2023-06-26T04:27:00;8.80;;;6.80;;
9665;SDS011;4871;52.004;5.924;2023-06-26T04:28:00;8.80;;;6.80;;
9665;SDS011;4871;52.004;5.924;2023-06-26T04:29:00;8.80;;;6.80;;
9665;SDS011;4871;52.004;5.924;2023-06-26T04:30:00;8.80;;;6.80;;
9665;SDS011;4871;52.004;5.924;2023-06-26T04:31:00;8.80;;;6.80;;
9665;SDS011;4871;52.004;5.924;2023-06-26T04:32:00;8.80;;;6.80;;
9665;SDS011;4871;52.004;5.924;2023-06-26T04:33:02;8.80;;;6.80;;
9665;SDS011;4871;52.004;5.924;2023-06-26T04:34:00;8.80;;;6.80;;
9665;SDS011;4871;52.004;5.924;2023-06-26T04:35:00;8.80;;;6.80;;
9665;SDS011;4871;52.004;5.924;2023-06-26T04:36:03;8.80;;;6.80;;
9665;SDS011;4871;52.004;5.924;2023-06-26T04:37:00;8.80;;;6.80;;
9665;SDS011;4871;52.004;5.924;2023-06-26T04:38:03;9.50;;;6.80;;
9665;SDS011;4871;52.004;5.924;2023-06-26T04:39:00;9.50;;;6.80;;
9665;SDS011;4871;52.004;5.924;2023-06-26T04:40:00;9.50;;;6.80;;
9665;SDS011;4871;52.004;5.924;2023-06-26T04:41:00;9.50;;;6.80;;
9665;SDS011;4871;52.004;5.924;2023-06-26T04:42:00;9.50;;;6.80;;
9665;SDS011;4871;52.004;5.924;2023-06-26T04:43:00;9.50;;;6.80;;
9665;SDS011;4871;52.004;5.924;2023-06-26T04:44:00;9.50;;;6.80;;
9665;SDS011;4871;52.004;5.924;2023-06-26T04:45:02;9.50;;;6.80;;
9665;SDS011;4871;52.004;5.924;2023-06-26T04:46:01;9.50;;;6.80;;
9665;SDS011;4871;52.004;5.924;2023-06-26T04:47:00;9.50;;;6.80;;
9665;SDS011;4871;52.004;5.924;2023-06-26T04:48:00;9.50;;;6.80;;
9665;SDS011;4871;52.004;5.924;2023-06-26T04:49:03;9.50;;;6.80;;
9665;SDS011;4871;52.004;5.924;2023-06-26T04:50:00;9.50;;;6.80;;
9665;SDS011;4871;52.004;5.924;2023-06-26T04:51:00;9.50;;;6.80;;
9665;SDS011;4871;52.004;5.924;2023-06-26T04:52:00;9.50;;;6.80;;
9665;SDS011;4871;52.004;5.924;2023-06-26T04:53:00;9.50;;;6.80;;
9665;SDS011;4871;52.004;5.924;2023-06-26T04:54:00;9.50;;;6.80;;
9665;SDS011;4871;52.004;5.924;2023-06-26T04:55:00;9.50;;;6.80;;
9665;SDS011;4871;52.004;5.924;2023-06-26T04:56:00;9.50;;;6.80;;
9665;SDS011;4871;52.004;5.924;2023-06-26T04:57:00;9.50;;;6.80;;
9665;SDS011;4871;52.004;5.924;2023-06-26T04:58:00;9.50;;;6.80;;
9665;SDS011;4871;52.004;5.924;2023-06-26T04:59:00;9.50;;;6.80;;
9665;SDS011;4871;52.004;5.924;2023-06-26T05:00:00;9.50;;;6.80;;
9665;SDS011;4871;52.004;5.924;2023-06-26T05:01:00;9.50;;;6.80;;
9665;SDS011;4871;52.004;5.924;2023-06-26T05:02:00;9.50;;;6.80;;
9665;SDS011;4871;52.004;5.924;2023-06-26T05:03:00;9.50;;;6.80;;
9665;SDS011;4871;52.004;5.924;2023-06-26T05:04:00;9.50;;;6.80;;
9665;SDS011;4871;52.004;5.924;2023-06-26T05:05:00;9.50;;;6.80;;
9665;SDS011;4871;52.004;5.924;2023-06-26T05:06:00;9.50;;;6.80;;
9665;SDS011;4871;52.004;5.924;2023-06-26T05:07:00;9.50;;;6.80;;
9665;SDS011;4871;52.004;5.924;2023-06-26T05:08:12;11.30;;;7.50;;
9665;SDS011;4871;52.004;5.924;2023-06-26T05:09:00;11.30;;;7.50;;
9665;SDS011;4871;52.004;5.924;2023-06-26T05:10:00;11.30;;;7.50;;
9665;SDS011;4871;52.004;5.924;2023-06-26T05:11:01;11.30;;;7.50;;
9665;SDS011;4871;52.004;5.924;2023-06-26T05:12:00;11.30;;;7.50;;
9665;SDS011;4871;52.004;5.924;2023-06-26T05:13:00;11.30;;;7.50;;
9665;SDS011;4871;52.004;5.924;2023-06-26T05:14:00;11.30;;;7.50;;
9665;SDS011;4871;52.004;5.924;2023-06-26T05:15:00;11.30;;;7.50;;
9665;SDS011;4871;52.004;5.924;2023-06-26T05:16:00;11.30;;;7.50;;
9665;SDS011;4871;52.004;5.924;2023-06-26T05:17:00;11.30;;;7.50;;
9665;SDS011;4871;52.004;5.924;2023-06-26T05:18:00;11.30;;;7.50;;
9665;SDS011;4871;52.004;5.924;2023-06-26T05:19:00;11.30;;;7.50;;
9665;SDS011;4871;52.004;5.924;2023-06-26T05:20:00;11.30;;;7.50;;
9665;SDS011;4871;52.004;5.924;2023-06-26T05:21:00;11.30;;;7.50;;
9665;SDS011;4871;52.004;5.924;2023-06-26T05:22:01;11.30;;;7.50;;
9665;SDS011;4871;52.004;5.924;2023-06-26T05:23:00;11.30;;;7.50;;
9665;SDS011;4871;52.004;5.924;2023-06-26T05:24:00;11.30;;;7.50;;
9665;SDS011;4871;52.004;5.924;2023-06-26T05:25:00;11.30;;;7.50;;
9665;SDS011;4871;52.004;5.924;2023-06-26T05:26:01;11.30;;;7.50;;
9665;SDS011;4871;52.004;5.924;2023-06-26T05:27:00;11.30;;;7.50;;
9665;SDS011;4871;52.004;5.924;2023-06-26T05:28:00;11.30;;;7.50;;
9665;SDS011;4871;52.004;5.924;2023-06-26T05:29:00;11.30;;;7.50;;
9665;SDS011;4871;52.004;5.924;2023-06-26T05:30:00;11.30;;;7.50;;
9665;SDS011;4871;52.004;5.924;2023-06-26T05:31:00;11.30;;;7.50;;
9665;SDS011;4871;52.004;5.924;2023-06-26T05:32:00;11.30;;;7.50;;
9665;SDS011;4871;52.004;5.924;2023-06-26T05:33:00;11.30;;;7.50;;
9665;SDS011;4871;52.004;5.924;2023-06-26T05:34:00;11.30;;;7.50;;
9665;SDS011;4871;52.004;5.924;2023-06-26T05:35:00;11.30;;;7.50;;
9665;SDS011;4871;52.004;5.924;2023-06-26T05:36:00;11.30;;;7.50;;
9665;SDS011;4871;52.004;5.924;2023-06-26T05:37:00;11.30;;;7.50;;
9665;SDS011;4871;52.004;5.924;2023-06-26T05:38:00;9.20;;;6.80;;
9665;SDS011;4871;52.004;5.924;2023-06-26T05:39:00;9.20;;;6.80;;
9665;SDS011;4871;52.004;5.924;2023-06-26T05:40:00;9.20;;;6.80;;
9665;SDS011;4871;52.004;5.924;2023-06-26T05:41:01;9.20;;;6.80;;
9665;SDS011;4871;52.004;5.924;2023-06-26T05:42:00;9.20;;;6.80;;
9665;SDS011;4871;52.004;5.924;2023-06-26T05:43:00;9.20;;;6.80;;
9665;SDS011;4871;52.004;5.924;2023-06-26T05:44:00;9.20;;;6.80;;
9665;SDS011;4871;52.004;5.924;2023-06-26T05:45:00;9.20;;;6.80;;
9665;SDS011;4871;52.004;5.924;2023-06-26T05:46:00;9.20;;;6.80;;
9665;SDS011;4871;52.004;5.924;2023-06-26T05:47:00;9.20;;;6.80;;
9665;SDS011;4871;52.004;5.924;2023-06-26T05:48:00;9.20;;;6.80;;
9665;SDS011;4871;52.004;5.924;2023-06-26T05:49:01;9.20;;;6.80;;
9665;SDS011;4871;52.004;5.924;2023-06-26T05:50:00;9.20;;;6.80;;
9665;SDS011;4871;52.004;5.924;2023-06-26T05:51:00;9.20;;;6.80;;
9665;SDS011;4871;52.004;5.924;2023-06-26T05:52:00;9.20;;;6.80;;
9665;SDS011;4871;52.004;5.924;2023-06-26T05:53:03;9.20;;;6.80;;
9665;SDS011;4871;52.004;5.924;2023-06-26T05:54:00;9.20;;;6.80;;
9665;SDS011;4871;52.004;5.924;2023-06-26T05:55:00;9.20;;;6.80;;
9665;SDS011;4871;52.004;5.924;2023-06-26T05:56:01;9.20;;;6.80;;
9665;SDS011;4871;52.004;5.924;2023-06-26T05:57:00;9.20;;;6.80;;
9665;SDS011;4871;52.004;5.924;2023-06-26T05:58:01;9.20;;;6.80;;
9665;SDS011;4871;52.004;5.924;2023-06-26T05:59:01;9.20;;;6.80;;
9665;SDS011;4871;52.004;5.924;2023-06-26T06:00:00;9.20;;;6.80;;
9665;SDS011;4871;52.004;5.924;2023-06-26T06:01:00;9.20;;;6.80;;
9665;SDS011;4871;52.004;5.924;2023-06-26T06:02:00;9.20;;;6.80;;
9665;SDS011;4871;52.004;5.924;2023-06-26T06:03:00;9.20;;;6.80;;
9665;SDS011;4871;52.004;5.924;2023-06-26T06:04:00;9.20;;;6.80;;
9665;SDS011;4871;52.004;5.924;2023-06-26T06:05:00;9.20;;;6.80;;
9665;SDS011;4871;52.004;5.924;2023-06-26T06:06:00;9.20;;;6.80;;
9665;SDS011;4871;52.004;5.924;2023-06-26T06:07:00;9.20;;;6.80;;
9665;SDS011;4871;52.004;5.924;2023-06-26T06:08:00;6.30;;;5.70;;
9665;SDS011;4871;52.004;5.924;2023-06-26T06:09:00;6.30;;;5.70;;
9665;SDS011;4871;52.004;5.924;2023-06-26T06:10:00;6.30;;;5.70;;